createdAt,value
2022-12-29T00:01:47.391Z,96.67
2022-12-29T00:04:16.774Z,96.33
2022-12-29T00:06:45.114Z,97.57
2022-12-29T00:09:14.493Z,96.93
2022-12-29T00:11:44.007Z,97.82
2022-12-29T00:14:29.733Z,96.25
2022-12-29T00:16:57.540Z,97.63
2022-12-29T00:19:43.608Z,96.75
2022-12-29T00:22:30.165Z,96.35
2022-12-29T00:25:15.409Z,96.04
2022-12-29T00:28:07.153Z,96.62
2022-12-29T00:30:53.373Z,97.10
2022-12-29T00:33:40.413Z,97.04
2022-12-29T00:36:11.164Z,97.26
2022-12-29T00:39:00.028Z,97.58
2022-12-29T00:41:45.344Z,97.13
2022-12-29T00:44:15.428Z,97.52
2022-12-29T00:46:44.742Z,95.59
2022-12-29T00:49:32.259Z,96.36
2022-12-29T00:52:02.345Z,96.65
2022-12-29T00:54:31.278Z,96.78
2022-12-29T00:56:59.238Z,96.42
2022-12-29T00:59:28.409Z,96.35
2022-12-29T01:01:57.062Z,95.97
2022-12-29T01:04:26.494Z,95.46
2022-12-29T01:06:54.483Z,94.84
2022-12-29T01:09:40.002Z,93.24
2022-12-29T01:12:09.383Z,96.38
2022-12-29T01:14:39.101Z,96.49
2022-12-29T01:17:07.170Z,96.07
2022-12-29T01:19:35.224Z,96.74
2022-12-29T01:22:02.904Z,97.95
2022-12-29T01:24:30.581Z,98.86
2022-12-29T01:26:58.335Z,99.09
2022-12-29T01:29:26.044Z,99.54
2022-12-29T01:31:55.140Z,100.00
2022-12-29T01:34:22.782Z,100.00
2022-12-29T01:36:50.570Z,100.00
2022-12-29T01:39:18.355Z,100.00
2022-12-29T01:41:46.028Z,100.00
2022-12-29T01:44:48.733Z,100.00
2022-12-29T01:47:25.209Z,100.00
2022-12-29T01:49:56.516Z,100.00
2022-12-29T01:52:26.204Z,100.00
2022-12-29T01:54:58.090Z,100.00
2022-12-29T01:57:30.135Z,100.00
2022-12-29T02:00:02.280Z,100.00
2022-12-29T02:02:33.462Z,100.00
2022-12-29T02:05:07.974Z,100.00
2022-12-29T02:07:36.020Z,100.00
2022-12-29T02:10:04.061Z,100.00
2022-12-29T02:12:31.758Z,100.00
2022-12-29T02:15:03.840Z,100.00
2022-12-29T02:17:48.871Z,100.00
2022-12-29T02:21:04.015Z,100.00
2022-12-29T02:23:48.701Z,100.00
2022-12-29T02:26:33.387Z,100.00
2022-12-29T02:29:44.313Z,100.00
2022-12-29T02:32:21.473Z,100.00
2022-12-29T02:34:59.187Z,100.00
2022-12-29T02:37:32.830Z,100.00
2022-12-29T02:40:08.132Z,100.00
2022-12-29T02:42:46.402Z,100.00
2022-12-29T02:45:20.303Z,99.72
2022-12-29T02:47:53.241Z,100.00
2022-12-29T02:50:27.495Z,99.85
2022-12-29T02:53:00.650Z,98.88
2022-12-29T02:55:27.379Z,99.01
2022-12-29T02:58:17.107Z,99.26
2022-12-29T03:00:58.159Z,98.96
2022-12-29T03:03:38.091Z,98.86
2022-12-29T03:06:16.136Z,99.21
2022-12-29T03:08:52.205Z,99.36
2022-12-29T03:11:34.013Z,99.65
2022-12-29T03:14:25.461Z,99.48
2022-12-29T03:16:57.638Z,99.35
2022-12-29T03:19:31.417Z,98.89
2022-12-29T03:22:20.574Z,98.64
2022-12-29T03:24:52.275Z,98.99
2022-12-29T03:27:23.457Z,98.76
2022-12-29T03:29:55.462Z,98.91
2022-12-29T03:32:25.562Z,98.89
2022-12-29T03:34:56.625Z,98.21
2022-12-29T03:37:30.399Z,98.50
2022-12-29T03:39:58.757Z,98.84
2022-12-29T03:42:31.217Z,98.58
2022-12-29T03:44:58.977Z,98.63
2022-12-29T03:47:27.428Z,98.90
2022-12-29T03:49:56.441Z,99.53
2022-12-29T03:52:24.160Z,98.90
2022-12-29T03:54:51.893Z,98.85
2022-12-29T03:57:19.550Z,99.09
2022-12-29T03:59:47.249Z,98.94
2022-12-29T04:02:15.202Z,99.23
2022-12-29T04:04:42.862Z,98.38
2022-12-29T04:07:11.878Z,98.40
2022-12-29T04:09:39.601Z,98.18
2022-12-29T04:12:07.491Z,98.21
2022-12-29T04:14:35.143Z,99.05
2022-12-29T04:17:02.844Z,98.72
2022-12-29T04:19:30.620Z,98.58
2022-12-29T04:21:58.385Z,98.55
2022-12-29T04:24:27.599Z,97.94
2022-12-29T04:26:55.524Z,97.11
2022-12-29T04:29:23.761Z,97.24
2022-12-29T04:31:51.610Z,97.56
2022-12-29T04:34:19.522Z,95.96
2022-12-29T04:36:47.522Z,95.97
2022-12-29T04:39:15.517Z,96.10
2022-12-29T04:41:44.874Z,96.09
2022-12-29T04:44:12.911Z,96.23
2022-12-29T04:46:42.650Z,96.14
2022-12-29T04:49:14.360Z,95.50
2022-12-29T04:51:43.562Z,94.83
2022-12-29T04:54:11.744Z,95.73
2022-12-29T04:56:39.938Z,95.20
2022-12-29T04:59:09.465Z,95.66
2022-12-29T05:01:37.496Z,95.13
2022-12-29T05:04:05.811Z,95.32
2022-12-29T05:06:33.999Z,95.14
2022-12-29T05:09:02.574Z,94.76
2022-12-29T05:11:30.370Z,95.03
2022-12-29T05:13:58.158Z,95.78
2022-12-29T05:16:27.358Z,94.57
2022-12-29T05:18:55.429Z,94.87
2022-12-29T05:21:23.263Z,92.04
2022-12-29T05:23:51.392Z,93.79
2022-12-29T05:26:21.924Z,90.82
2022-12-29T05:28:50.038Z,94.60
2022-12-29T05:31:17.910Z,91.07
2022-12-29T05:33:47.571Z,93.94
2022-12-29T05:36:15.550Z,94.25
2022-12-29T05:38:43.392Z,94.17
2022-12-29T05:41:11.785Z,92.86
2022-12-29T05:43:39.757Z,94.46
2022-12-29T05:46:07.484Z,94.11
2022-12-29T05:48:38.080Z,94.68
2022-12-29T05:51:07.651Z,92.78
2022-12-29T05:53:35.431Z,93.39
2022-12-29T05:56:03.139Z,93.58
2022-12-29T05:58:30.852Z,92.18
2022-12-29T06:00:58.563Z,92.42
2022-12-29T06:03:26.657Z,93.22
2022-12-29T06:05:54.596Z,92.65
2022-12-29T06:08:23.635Z,93.03
2022-12-29T06:10:51.824Z,92.84
2022-12-29T06:13:19.497Z,93.28
2022-12-29T06:15:47.159Z,93.04
2022-12-29T06:18:19.692Z,92.45
2022-12-29T06:20:48.005Z,93.41
2022-12-29T06:23:15.696Z,91.16
2022-12-29T06:25:44.802Z,91.66
2022-12-29T06:28:12.718Z,92.10
2022-12-29T06:30:40.809Z,92.59
2022-12-29T06:33:09.435Z,94.51
2022-12-29T06:35:37.083Z,94.94
2022-12-29T06:38:04.746Z,94.42
2022-12-29T06:40:32.430Z,94.54
2022-12-29T06:43:02.048Z,95.18
2022-12-29T06:45:29.815Z,94.97
2022-12-29T06:47:57.443Z,94.99
2022-12-29T06:50:25.184Z,94.03
2022-12-29T06:52:52.932Z,93.51
2022-12-29T06:55:22.194Z,92.57
2022-12-29T06:57:49.901Z,93.27
2022-12-29T07:00:22.678Z,93.51
2022-12-29T07:02:50.962Z,93.26
2022-12-29T07:05:18.981Z,91.61
2022-12-29T07:07:46.852Z,91.63
2022-12-29T07:10:14.556Z,91.58
2022-12-29T07:12:42.233Z,91.92
2022-12-29T07:15:10.446Z,93.39
2022-12-29T07:17:39.530Z,94.60
2022-12-29T07:20:08.962Z,93.89
2022-12-29T07:22:36.791Z,95.14
2022-12-29T07:25:04.878Z,95.69
2022-12-29T07:27:32.539Z,95.60
2022-12-29T07:30:00.276Z,95.80
2022-12-29T07:32:28.160Z,96.62
2022-12-29T07:34:57.242Z,96.47
2022-12-29T07:37:24.900Z,96.46
2022-12-29T07:39:52.659Z,97.29
2022-12-29T07:42:20.533Z,96.64
2022-12-29T07:44:48.204Z,96.75
2022-12-29T07:47:16.055Z,97.20
2022-12-29T07:49:43.863Z,96.65
2022-12-29T07:52:14.848Z,96.16
2022-12-29T07:54:42.562Z,96.65
2022-12-29T07:57:10.591Z,96.10
2022-12-29T07:59:38.415Z,95.92
2022-12-29T08:02:06.383Z,96.24
2022-12-29T08:04:34.180Z,94.02
2022-12-29T08:07:02.066Z,94.30
2022-12-29T08:09:31.208Z,93.89
2022-12-29T08:11:58.910Z,92.41
2022-12-29T08:14:26.610Z,92.54
2022-12-29T08:16:54.278Z,92.50
2022-12-29T08:19:22.061Z,91.33
2022-12-29T08:21:52.239Z,88.67
2022-12-29T08:24:19.900Z,91.37
2022-12-29T08:26:49.007Z,92.65
2022-12-29T08:29:16.669Z,92.01
2022-12-29T08:31:44.397Z,90.87
2022-12-29T08:34:12.136Z,92.17
2022-12-29T08:36:39.830Z,90.40
2022-12-29T08:39:07.602Z,87.85
2022-12-29T08:41:35.271Z,87.23
2022-12-29T08:44:04.441Z,90.70
2022-12-29T08:46:32.405Z,89.65
2022-12-29T08:49:00.131Z,90.56
2022-12-29T08:51:27.848Z,90.60
2022-12-29T08:53:55.567Z,89.37
2022-12-29T08:56:24.643Z,91.17
2022-12-29T08:58:52.430Z,91.76
2022-12-29T09:01:22.024Z,89.53
2022-12-29T09:06:40.486Z,92.08
2022-12-29T09:09:08.836Z,91.26
2022-12-29T09:11:36.529Z,90.44
2022-12-29T09:14:04.281Z,90.82
2022-12-29T09:16:33.674Z,91.07
2022-12-29T09:19:01.892Z,91.12
2022-12-29T09:21:29.563Z,92.08
2022-12-29T09:23:57.245Z,91.15
2022-12-29T09:26:25.011Z,92.21
2022-12-29T09:28:52.706Z,92.75
2022-12-29T09:31:20.394Z,93.90
2022-12-29T09:33:49.450Z,93.85
2022-12-29T09:36:17.185Z,94.82
2022-12-29T09:38:44.876Z,94.62
2022-12-29T09:41:19.677Z,94.85
2022-12-29T09:43:58.417Z,95.43
2022-12-29T09:46:28.159Z,96.48
2022-12-29T09:49:10.183Z,97.18
2022-12-29T09:51:42.941Z,98.29
2022-12-29T09:54:25.083Z,98.41
2022-12-29T09:56:54.203Z,99.26
2022-12-29T09:59:26.383Z,99.00
2022-12-29T10:01:59.799Z,98.49
2022-12-29T10:04:30.089Z,98.86
2022-12-29T10:10:02.014Z,99.15
2022-12-29T10:12:37.118Z,99.41
2022-12-29T10:15:11.480Z,99.22
2022-12-29T10:17:49.807Z,99.39
2022-12-29T10:20:33.743Z,98.94
2022-12-29T10:23:18.337Z,99.61
2022-12-29T10:25:46.922Z,99.63
2022-12-29T10:28:22.612Z,99.42
2022-12-29T10:30:53.360Z,99.65
2022-12-29T10:33:24.761Z,99.75
2022-12-29T10:35:54.145Z,99.92
2022-12-29T10:38:29.704Z,100.00
2022-12-29T10:41:02.670Z,100.00
2022-12-29T10:43:32.663Z,100.00
2022-12-29T10:46:04.786Z,100.00
2022-12-29T10:48:34.323Z,100.00
2022-12-29T10:51:06.138Z,100.00
2022-12-29T10:53:42.106Z,100.00
2022-12-29T10:56:22.651Z,100.00
2022-12-29T10:58:52.069Z,100.00
2022-12-29T11:01:21.492Z,100.00
2022-12-29T11:04:05.559Z,100.00
2022-12-29T11:06:34.951Z,100.00
2022-12-29T11:09:20.966Z,100.00
2022-12-29T11:11:48.686Z,100.00
2022-12-29T11:14:20.382Z,100.00
2022-12-29T11:16:59.665Z,100.00
2022-12-29T11:19:29.495Z,100.00
2022-12-29T11:22:15.115Z,100.00
2022-12-29T11:24:47.852Z,100.00
2022-12-29T11:27:19.042Z,100.00
2022-12-29T11:29:47.686Z,100.00
2022-12-29T11:32:27.891Z,100.00
2022-12-29T11:34:56.444Z,99.45
2022-12-29T11:37:35.407Z,98.14
2022-12-29T11:40:06.463Z,97.63
2022-12-29T11:42:38.349Z,97.75
2022-12-29T11:45:11.101Z,98.47
2022-12-29T11:47:39.062Z,98.69
2022-12-29T11:50:09.192Z,99.04
2022-12-29T11:52:40.467Z,98.59
2022-12-29T11:55:20.514Z,97.16
2022-12-29T11:57:49.141Z,96.61
2022-12-29T12:00:20.339Z,96.90
2022-12-29T12:02:58.857Z,96.57
2022-12-29T12:05:42.397Z,96.10
2022-12-29T12:08:21.347Z,96.18
2022-12-29T12:10:55.123Z,95.50
2022-12-29T12:13:29.163Z,96.50
2022-12-29T12:16:02.519Z,97.02
2022-12-29T12:18:39.713Z,98.19
2022-12-29T12:21:14.275Z,98.75
2022-12-29T12:23:56.205Z,99.09
2022-12-29T12:26:32.263Z,99.52
2022-12-29T12:29:06.090Z,98.76
2022-12-29T12:31:45.955Z,98.76
2022-12-29T12:34:19.794Z,98.54
2022-12-29T12:37:21.035Z,97.89
2022-12-29T12:40:10.344Z,97.52
2022-12-29T12:42:51.224Z,96.99
2022-12-29T12:45:37.174Z,96.85
2022-12-29T12:48:22.419Z,95.95
2022-12-29T12:50:57.797Z,96.21
2022-12-29T12:53:39.083Z,95.57
2022-12-29T12:56:34.756Z,94.87
2022-12-29T12:59:14.438Z,94.32
2022-12-29T13:01:54.202Z,94.86
2022-12-29T13:04:42.950Z,95.03
2022-12-29T13:07:22.668Z,94.34
2022-12-29T13:10:03.160Z,94.93
2022-12-29T13:12:40.563Z,94.99
2022-12-29T13:15:21.780Z,95.33
2022-12-29T13:17:59.305Z,93.22
2022-12-29T13:20:36.909Z,95.07
2022-12-29T13:23:10.402Z,94.28
2022-12-29T13:25:47.383Z,93.72
2022-12-29T13:28:26.337Z,94.76
2022-12-29T13:31:02.614Z,94.01
2022-12-29T13:33:39.395Z,93.36
2022-12-29T13:36:13.380Z,94.95
2022-12-29T13:38:44.988Z,94.48
2022-12-29T13:41:18.665Z,94.81
2022-12-29T13:43:51.490Z,94.83
2022-12-29T13:46:25.981Z,94.51
2022-12-29T13:48:57.402Z,94.79
2022-12-29T13:51:28.195Z,94.97
2022-12-29T13:54:21.585Z,93.45
2022-12-29T13:56:56.967Z,94.48
2022-12-29T13:59:41.662Z,94.23
2022-12-29T14:02:21.521Z,94.94
2022-12-29T14:05:01.053Z,92.16
2022-12-29T14:07:29.502Z,93.75
2022-12-29T14:09:58.757Z,94.36
2022-12-29T14:12:40.108Z,93.24
2022-12-29T14:15:21.655Z,94.95
2022-12-29T14:18:04.053Z,94.31
2022-12-29T14:20:32.008Z,94.79
2022-12-29T14:23:01.439Z,95.59
2022-12-29T14:25:58.681Z,96.08
2022-12-29T14:28:28.614Z,96.21
2022-12-29T14:30:59.063Z,95.75
2022-12-29T14:33:30.050Z,96.65
2022-12-29T14:35:59.149Z,96.28
2022-12-29T14:38:32.229Z,95.42
2022-12-29T14:41:29.604Z,96.22
2022-12-29T14:44:01.624Z,97.68
2022-12-29T14:49:25.839Z,98.06
2022-12-29T14:51:55.680Z,98.85
2022-12-29T14:54:46.967Z,99.18
2022-12-29T14:57:22.942Z,99.66
2022-12-29T14:59:56.118Z,99.25
2022-12-29T15:02:28.378Z,100.00
2022-12-29T15:05:02.166Z,99.89
2022-12-29T15:07:31.386Z,99.88
2022-12-29T15:10:07.141Z,99.64
2022-12-29T15:12:40.734Z,100.00
2022-12-29T15:15:21.554Z,99.89
2022-12-29T15:17:49.669Z,99.98
2022-12-29T15:20:24.601Z,99.93
2022-12-29T15:22:54.943Z,99.87
2022-12-29T15:25:22.769Z,99.37
2022-12-29T15:27:53.199Z,99.56
2022-12-29T15:30:21.572Z,99.23
2022-12-29T15:32:50.287Z,99.21
2022-12-29T15:35:29.175Z,99.23
2022-12-29T15:37:56.838Z,98.75
2022-12-29T15:40:27.181Z,98.76
2022-12-29T15:43:15.775Z,98.30
2022-12-29T15:45:43.777Z,97.88
2022-12-29T15:48:18.551Z,97.22
2022-12-29T15:50:48.058Z,96.91
2022-12-29T15:53:25.621Z,96.67
2022-12-29T15:55:58.338Z,97.29
2022-12-29T15:58:30.838Z,96.25
2022-12-29T16:01:00.182Z,95.95
2022-12-29T16:03:31.846Z,96.75
2022-12-29T16:06:11.105Z,96.73
2022-12-29T16:08:41.223Z,96.84
2022-12-29T16:11:24.576Z,96.73
2022-12-29T16:13:54.274Z,96.05
2022-12-29T16:16:27.719Z,95.27
2022-12-29T16:18:57.978Z,96.06
2022-12-29T16:21:30.228Z,96.05
2022-12-29T16:24:02.928Z,96.71
2022-12-29T16:26:31.041Z,96.69
2022-12-29T16:29:01.723Z,95.96
2022-12-29T16:31:36.509Z,95.11
2022-12-29T16:34:15.110Z,96.00
2022-12-29T16:36:56.503Z,96.22
2022-12-29T16:39:31.031Z,95.97
2022-12-29T16:41:58.920Z,95.98
2022-12-29T16:44:28.543Z,95.71
2022-12-29T16:47:05.764Z,94.10
2022-12-29T16:49:35.545Z,95.62
2022-12-29T16:52:14.259Z,94.19
2022-12-29T16:54:42.804Z,95.62
2022-12-29T16:57:11.207Z,94.82
2022-12-29T16:59:43.432Z,95.05
2022-12-29T17:02:17.188Z,93.73
2022-12-29T17:04:49.380Z,94.32
2022-12-29T17:07:21.045Z,94.96
2022-12-29T17:09:48.972Z,95.19
2022-12-29T17:12:19.406Z,94.72
2022-12-29T17:14:50.383Z,95.33
2022-12-29T17:17:21.806Z,95.37
2022-12-29T17:19:54.413Z,94.85
2022-12-29T17:22:28.683Z,94.75
2022-12-29T17:24:58.274Z,94.74
2022-12-29T17:27:30.961Z,95.44
2022-12-29T17:30:04.043Z,95.15
2022-12-29T17:32:39.677Z,94.60
2022-12-29T17:35:08.065Z,95.36
2022-12-29T17:37:39.018Z,94.16
2022-12-29T17:40:09.053Z,95.08
2022-12-29T17:42:44.831Z,93.86
2022-12-29T17:45:17.905Z,95.12
2022-12-29T17:47:45.960Z,95.37
2022-12-29T17:50:15.779Z,93.96
2022-12-29T17:52:48.251Z,93.79
2022-12-29T17:55:18.229Z,94.50
2022-12-29T17:57:46.174Z,94.98
2022-12-29T18:00:18.275Z,93.88
2022-12-29T18:02:46.310Z,93.15
2022-12-29T18:05:18.592Z,90.13
2022-12-29T18:07:48.164Z,92.94
2022-12-29T18:10:16.166Z,93.65
2022-12-29T18:12:45.785Z,94.38
2022-12-29T18:15:19.738Z,92.63
2022-12-29T18:17:47.601Z,92.34
2022-12-29T18:20:15.408Z,91.84
2022-12-29T18:22:43.672Z,92.88
2022-12-29T18:25:24.370Z,90.26
2022-12-29T18:27:52.338Z,93.57
2022-12-29T18:30:20.102Z,92.29
2022-12-29T18:32:47.858Z,92.99
2022-12-29T18:35:20.236Z,92.99
2022-12-29T18:37:48.054Z,93.62
2022-12-29T18:40:15.878Z,93.12
2022-12-29T18:42:44.959Z,93.32
2022-12-29T18:45:20.979Z,93.28
2022-12-29T18:47:48.734Z,92.48
2022-12-29T18:50:17.539Z,92.53
2022-12-29T18:52:46.073Z,93.06
2022-12-29T18:55:15.427Z,92.68
2022-12-29T18:57:43.091Z,93.03
2022-12-29T19:00:14.648Z,92.29
2022-12-29T19:02:42.484Z,93.16
2022-12-29T19:05:21.137Z,93.04
2022-12-29T19:07:48.873Z,93.05
2022-12-29T19:10:17.067Z,93.82
2022-12-29T19:12:45.332Z,93.28
2022-12-29T19:15:21.231Z,91.49
2022-12-29T19:18:08.273Z,93.28
2022-12-29T19:20:38.565Z,93.21
2022-12-29T19:23:07.977Z,93.91
2022-12-29T19:25:36.460Z,93.26
2022-12-29T19:28:04.287Z,93.26
2022-12-29T19:30:34.866Z,92.97
2022-12-29T19:33:09.495Z,92.17
2022-12-29T19:35:37.722Z,93.23
2022-12-29T19:38:05.952Z,92.65
2022-12-29T19:40:33.761Z,90.52
2022-12-29T19:43:01.435Z,92.37
2022-12-29T19:45:29.267Z,93.47
2022-12-29T19:47:58.327Z,93.26
2022-12-29T19:50:26.012Z,93.32
2022-12-29T19:53:01.804Z,94.59
2022-12-29T19:55:32.627Z,92.46
2022-12-29T19:58:00.408Z,93.20
2022-12-29T20:00:28.177Z,93.61
2022-12-29T20:02:56.088Z,93.57
2022-12-29T20:05:25.214Z,92.46
2022-12-29T20:07:52.882Z,94.48
2022-12-29T20:10:20.615Z,94.31
2022-12-29T20:12:48.363Z,94.14
2022-12-29T20:15:16.228Z,93.56
2022-12-29T20:18:12.449Z,93.94
2022-12-29T20:20:35.645Z,93.35
2022-12-29T20:23:03.346Z,94.19
2022-12-29T20:25:53.892Z,93.84
2022-12-29T20:28:19.102Z,93.66
2022-12-29T20:30:54.454Z,93.86
2022-12-29T20:33:22.183Z,93.71
2022-12-29T20:35:51.487Z,94.03
2022-12-29T20:38:19.480Z,93.55
2022-12-29T20:40:47.559Z,94.55
2022-12-29T20:43:16.471Z,92.50
2022-12-29T20:45:44.219Z,92.42
2022-12-29T20:48:12.093Z,93.13
2022-12-29T20:50:39.924Z,92.28
2022-12-29T20:53:09.096Z,92.00
2022-12-29T20:55:40.890Z,92.10
2022-12-29T20:58:25.347Z,93.17
2022-12-29T21:00:53.429Z,92.05
2022-12-29T21:03:21.332Z,91.68
2022-12-29T21:05:49.069Z,92.56
2022-12-29T21:08:18.118Z,92.74
2022-12-29T21:10:48.269Z,92.36
2022-12-29T21:13:19.331Z,92.30
2022-12-29T21:15:48.103Z,92.96
2022-12-29T21:18:16.428Z,92.44
2022-12-29T21:20:44.239Z,92.93
2022-12-29T21:23:13.449Z,92.26
2022-12-29T21:25:44.868Z,92.54
2022-12-29T21:28:13.251Z,92.21
2022-12-29T21:30:42.144Z,93.07
2022-12-29T21:33:10.213Z,93.01
2022-12-29T21:35:38.768Z,92.15
2022-12-29T21:38:06.492Z,91.53
2022-12-29T21:40:36.007Z,92.84
2022-12-29T21:43:05.736Z,93.12
2022-12-29T21:45:34.077Z,92.61
2022-12-29T21:48:20.681Z,91.91
2022-12-29T21:51:08.011Z,92.46
2022-12-29T21:53:38.897Z,92.25
2022-12-29T21:56:08.454Z,92.78
2022-12-29T21:58:56.552Z,92.45
2022-12-29T22:01:43.555Z,93.32
2022-12-29T22:04:30.768Z,93.55
2022-12-29T22:07:15.934Z,93.19
2022-12-29T22:10:01.313Z,92.36
2022-12-29T22:12:47.927Z,92.55
2022-12-29T22:15:17.144Z,92.72
2022-12-29T22:17:48.800Z,93.07
2022-12-29T22:20:17.412Z,92.63
2022-12-29T22:22:44.932Z,91.52
2022-12-29T22:25:13.045Z,92.53
2022-12-29T22:27:40.747Z,93.08
2022-12-29T22:30:09.647Z,93.81
2022-12-29T22:32:38.800Z,91.78
2022-12-29T22:35:08.495Z,92.17
2022-12-29T22:37:37.566Z,93.38
2022-12-29T22:40:06.031Z,94.18
2022-12-29T22:42:33.787Z,93.47
2022-12-29T22:45:01.512Z,93.92
2022-12-29T22:47:29.240Z,94.16
2022-12-29T22:49:58.268Z,92.80
2022-12-29T22:52:25.952Z,93.00
2022-12-29T22:54:54.076Z,92.48
2022-12-29T22:57:21.820Z,94.11
2022-12-29T22:59:49.560Z,94.01
2022-12-29T23:02:17.467Z,94.50
2022-12-29T23:07:35.697Z,93.99
2022-12-29T23:10:04.091Z,93.13
2022-12-29T23:12:32.545Z,93.87
2022-12-29T23:15:00.211Z,94.38
2022-12-29T23:17:27.877Z,94.63
2022-12-29T23:19:55.616Z,94.33
2022-12-29T23:22:24.997Z,93.56
2022-12-29T23:24:54.172Z,93.85
2022-12-29T23:27:21.878Z,93.84
2022-12-29T23:29:49.565Z,94.11
2022-12-29T23:32:17.392Z,94.09
2022-12-29T23:34:45.191Z,94.46
2022-12-29T23:37:12.935Z,94.51
2022-12-29T23:39:40.683Z,94.50
2022-12-29T23:42:11.292Z,95.10
2022-12-29T23:44:38.926Z,94.45
2022-12-29T23:47:06.681Z,93.93
2022-12-29T23:49:34.410Z,94.04
2022-12-29T23:52:02.118Z,93.98
2022-12-29T23:54:29.826Z,94.43
2022-12-29T23:56:57.493Z,94.44
2022-12-29T23:59:27.137Z,94.05
